메인 페이지
METAR-TAF:

METAR-TAF

공항 :

Nawabshah, 파키스탄

위도: 26-15N, 경도: 068-22E, 고도: 37m

현재 날씨관측

예보는 39분 전, 10:00시(UTC)에 발표되었습니다.
4kt
온도 23°C
습도 36%
기압 1022 hPa
시정: 4000m
연기

METAR: OPNH 151000Z 36004KT 4000 FU NSC 23/07 Q1022 NOSIG

시각: 15:39 (10:39 UTC)

예보

예보는 4 시간 9분 전, 06:30시(UTC)에 발표되었습니다.
예보 대상 시간: 15일 09시부터 15일 18시까지 (UTC)
10kt
시정: 4000m
연무

TAF: OPNH 150630Z 1509/1518 36010KT 4000 HZ NSC

4,000개 이상의 공항 관측 자료 및 예보 (METAR 및 TAF 보고).

지도상에서 검색 가능한 기상관측소가 노란 점과 빨간 점으로 표시되어 있습니다.

기상관측소 명을 보려면 표시 위로 마우스를 이동하세요.

날씨 관측과 예보를 보려면 클릭하세요.

지도 변경 : 확대하려면 엑스 표시가 있는 녹색 버튼, 축소하려면 빼기 표시가 있는 녹색 버튼, 다음 페이지의 지도를 보려면 녹색 화살표를 클릭하세요.


METAR-TAF: